createdAt,value
2022-09-09T00:01:06.161Z,6.05
2022-09-09T00:04:16.149Z,5.78
2022-09-09T00:07:29.547Z,5.78
2022-09-09T00:10:35.521Z,5.60
2022-09-09T00:13:34.911Z,5.97
2022-09-09T00:16:26.114Z,5.63
2022-09-09T00:19:23.215Z,6.28
2022-09-09T00:22:17.589Z,5.43
2022-09-09T00:25:17.903Z,5.50
2022-09-09T00:28:05.397Z,5.40
2022-09-09T00:30:50.822Z,4.95
2022-09-09T00:33:36.068Z,5.28
2022-09-09T00:36:27.426Z,5.60
2022-09-09T00:39:42.729Z,5.55
2022-09-09T00:42:38.401Z,5.60
2022-09-09T00:45:32.974Z,5.65
2022-09-09T00:48:19.943Z,5.30
2022-09-09T00:51:18.812Z,5.00
2022-09-09T00:54:25.309Z,5.85
2022-09-09T00:57:32.237Z,5.15
2022-09-09T01:00:28.022Z,4.72
2022-09-09T01:03:26.467Z,5.07
2022-09-09T01:06:30.021Z,5.13
2022-09-09T01:09:33.646Z,5.07
2022-09-09T01:12:26.277Z,4.70
2022-09-09T01:15:27.233Z,5.47
2022-09-09T01:18:15.550Z,4.72
2022-09-09T01:21:28.663Z,5.30
2022-09-09T01:25:26.771Z,4.38
2022-09-09T01:28:26.801Z,4.90
2022-09-09T01:31:20.785Z,4.95
2022-09-09T01:34:13.400Z,4.50
2022-09-09T01:37:08.923Z,4.60
2022-09-09T01:39:55.874Z,4.88
2022-09-09T01:42:41.531Z,4.53
2022-09-09T01:45:27.523Z,5.97
2022-09-09T01:48:12.791Z,4.43
2022-09-09T01:51:05.066Z,4.70
2022-09-09T01:53:50.909Z,4.95
2022-09-09T01:57:12.353Z,5.22
2022-09-09T02:00:11.541Z,4.93
2022-09-09T02:03:06.523Z,4.90
2022-09-09T02:06:36.041Z,4.53
2022-09-09T02:09:44.818Z,4.00
2022-09-09T02:12:31.666Z,4.88
2022-09-09T02:15:50.535Z,4.43
2022-09-09T02:19:02.054Z,3.88
2022-09-09T02:22:04.868Z,3.95
2022-09-09T02:24:55.931Z,4.68
2022-09-09T02:27:48.502Z,4.95
2022-09-09T02:30:35.845Z,4.70
2022-09-09T02:33:27.468Z,4.70
2022-09-09T02:36:17.168Z,4.60
2022-09-09T02:39:08.724Z,4.53
2022-09-09T02:41:54.823Z,3.90
2022-09-09T02:44:48.116Z,4.80
2022-09-09T02:47:45.020Z,4.65
2022-09-09T02:50:45.209Z,4.55
2022-09-09T02:53:38.607Z,4.47
2022-09-09T02:56:29.608Z,4.90
2022-09-09T03:02:03.755Z,4.25
2022-09-09T03:04:52.809Z,4.57
2022-09-09T03:07:40.873Z,4.30
2022-09-09T03:10:27.846Z,4.88
2022-09-09T03:13:16.090Z,3.85
2022-09-09T03:16:01.751Z,4.30
2022-09-09T03:18:51.079Z,4.65
2022-09-09T03:21:36.802Z,4.95
2022-09-09T03:24:23.825Z,4.90
2022-09-09T03:27:09.041Z,5.82
2022-09-09T03:29:56.958Z,5.65
2022-09-09T03:32:48.903Z,4.88
2022-09-09T03:35:34.238Z,4.32
2022-09-09T03:38:20.227Z,4.57
2022-09-09T03:41:08.817Z,4.38
2022-09-09T03:43:54.901Z,4.85
2022-09-09T03:46:42.080Z,4.93
2022-09-09T03:49:29.558Z,4.60
2022-09-09T03:52:20.454Z,4.45
2022-09-09T03:55:10.155Z,4.75
2022-09-09T03:57:56.102Z,4.90
2022-09-09T04:00:46.180Z,4.40
2022-09-09T04:03:32.514Z,4.72
2022-09-09T04:06:18.924Z,4.60
2022-09-09T04:09:05.874Z,3.83
2022-09-09T04:11:54.047Z,4.28
2022-09-09T04:14:40.003Z,5.13
2022-09-09T04:17:26.560Z,4.55
2022-09-09T04:20:13.151Z,4.35
2022-09-09T04:22:58.748Z,4.50
2022-09-09T04:25:49.356Z,5.03
2022-09-09T04:28:37.288Z,4.63
2022-09-09T04:31:25.861Z,4.78
2022-09-09T04:34:14.994Z,4.07
2022-09-09T04:37:00.674Z,4.35
2022-09-09T04:39:46.968Z,4.82
2022-09-09T04:42:38.730Z,4.35
2022-09-09T04:48:10.736Z,4.40
2022-09-09T04:50:57.744Z,4.45
2022-09-09T04:53:43.684Z,4.20
2022-09-09T04:56:30.961Z,4.05
2022-09-09T04:59:17.806Z,3.70
2022-09-09T05:02:07.296Z,4.05
2022-09-09T05:04:53.308Z,4.43
2022-09-09T05:07:38.739Z,4.45
2022-09-09T05:10:24.308Z,4.40
2022-09-09T05:13:10.335Z,3.85
2022-09-09T05:15:55.952Z,4.18
2022-09-09T05:18:43.966Z,4.97
2022-09-09T05:21:31.897Z,4.47
2022-09-09T05:24:18.145Z,4.65
2022-09-09T05:27:07.007Z,5.05
2022-09-09T05:29:52.812Z,4.43
2022-09-09T05:32:38.035Z,4.75
2022-09-09T05:35:24.027Z,4.78
2022-09-09T05:38:09.531Z,5.22
2022-09-09T05:40:54.875Z,5.45
2022-09-09T05:43:40.794Z,4.75
2022-09-09T05:46:27.104Z,4.88
2022-09-09T05:49:16.771Z,4.07
2022-09-09T05:52:04.904Z,4.78
2022-09-09T05:54:50.541Z,4.50
2022-09-09T05:57:35.934Z,4.57
2022-09-09T06:00:22.680Z,4.90
2022-09-09T06:03:14.521Z,4.50
2022-09-09T06:06:02.704Z,4.68
2022-09-09T06:08:51.982Z,5.28
2022-09-09T06:11:39.632Z,4.85
2022-09-09T06:14:26.582Z,5.28
2022-09-09T06:17:12.616Z,5.28
2022-09-09T06:19:58.700Z,5.30
2022-09-09T06:22:44.114Z,5.25
2022-09-09T06:25:29.746Z,4.85
2022-09-09T06:28:16.304Z,5.45
2022-09-09T06:31:07.193Z,5.05
2022-09-09T06:33:56.201Z,6.57
2022-09-09T06:36:43.769Z,4.93
2022-09-09T06:39:29.608Z,4.85
2022-09-09T06:42:16.668Z,4.88
2022-09-09T06:45:05.903Z,4.88
2022-09-09T06:48:02.844Z,5.40
2022-09-09T06:50:50.794Z,4.50
2022-09-09T06:53:39.619Z,5.03
2022-09-09T06:56:28.945Z,5.60
2022-09-09T06:59:16.696Z,5.07
2022-09-09T07:02:04.586Z,5.43
2022-09-09T07:04:52.040Z,5.75
2022-09-09T07:07:37.917Z,6.28
2022-09-09T07:10:25.267Z,8.70
2022-09-09T07:13:11.037Z,7.13
2022-09-09T07:16:12.490Z,6.32
2022-09-09T07:19:01.655Z,5.88
2022-09-09T07:21:47.643Z,6.18
2022-09-09T07:24:38.176Z,5.75
2022-09-09T07:27:23.655Z,6.15
2022-09-09T07:30:10.799Z,5.82
2022-09-09T07:32:58.161Z,5.97
2022-09-09T07:35:47.423Z,6.28
2022-09-09T07:38:44.596Z,6.90
2022-09-09T07:41:37.190Z,6.50
2022-09-09T07:50:07.386Z,6.78
2022-09-09T07:52:54.484Z,6.80
2022-09-09T07:55:41.500Z,6.85
2022-09-09T07:58:27.933Z,6.53
2022-09-09T08:01:19.027Z,6.55
2022-09-09T08:04:08.155Z,7.28
2022-09-09T08:06:58.171Z,6.82
2022-09-09T08:09:44.921Z,7.20
2022-09-09T08:12:37.269Z,7.47
2022-09-09T08:15:22.963Z,7.78
2022-09-09T08:18:08.345Z,6.97
2022-09-09T08:20:54.443Z,7.05
2022-09-09T08:23:44.278Z,7.80
2022-09-09T08:26:42.699Z,6.80
2022-09-09T08:29:40.094Z,8.23
2022-09-09T08:32:28.244Z,8.27
2022-09-09T08:35:14.897Z,8.25
2022-09-09T08:38:00.341Z,8.88
2022-09-09T08:40:52.074Z,8.52
2022-09-09T08:43:37.833Z,8.27
2022-09-09T08:46:47.929Z,7.20
2022-09-09T08:49:36.567Z,7.32
2022-09-09T08:52:37.187Z,7.50
2022-09-09T08:55:29.530Z,8.02
2022-09-09T08:58:22.407Z,7.38
2022-09-09T09:01:10.640Z,8.55
2022-09-09T09:04:03.654Z,7.18
2022-09-09T09:07:05.821Z,8.13
2022-09-09T09:10:11.937Z,8.75
2022-09-09T09:13:16.916Z,8.27
2022-09-09T09:16:14.135Z,7.30
2022-09-09T09:19:01.244Z,6.75
2022-09-09T09:21:59.532Z,7.20
2022-09-09T09:24:54.073Z,7.88
2022-09-09T09:27:56.004Z,8.27
2022-09-09T09:30:50.561Z,8.57
2022-09-09T09:33:41.585Z,9.25
2022-09-09T09:36:40.803Z,8.30
2022-09-09T09:42:35.201Z,7.88
2022-09-09T09:45:29.530Z,8.05
2022-09-09T09:48:16.801Z,9.60
2022-09-09T09:51:13.375Z,11.00
2022-09-09T09:54:37.033Z,10.60
2022-09-09T09:57:31.548Z,16.27
2022-09-09T10:00:24.146Z,20.77
2022-09-09T10:03:26.188Z,11.43
2022-09-09T10:06:12.688Z,9.73
2022-09-09T10:08:58.225Z,8.88
2022-09-09T10:12:05.679Z,9.63
2022-09-09T10:15:03.300Z,9.18
2022-09-09T10:18:03.859Z,8.80
2022-09-09T10:21:21.755Z,8.93
2022-09-09T10:24:26.318Z,8.52
2022-09-09T10:27:31.693Z,8.43
2022-09-09T10:30:41.080Z,9.25
2022-09-09T10:33:38.476Z,9.73
2022-09-09T10:36:29.402Z,9.25
2022-09-09T10:39:42.141Z,9.10
2022-09-09T10:42:32.460Z,9.68
2022-09-09T10:45:26.527Z,12.32
2022-09-09T10:48:50.644Z,13.13
2022-09-09T10:51:56.068Z,14.32
2022-09-09T10:55:11.246Z,14.68
2022-09-09T10:58:06.907Z,13.32
2022-09-09T11:01:03.751Z,13.85
2022-09-09T11:04:00.265Z,11.55
2022-09-09T11:06:53.367Z,11.48
2022-09-09T11:09:53.899Z,10.30
2022-09-09T11:12:44.766Z,10.00
2022-09-09T11:15:45.675Z,9.57
2022-09-09T11:18:37.549Z,9.70
2022-09-09T11:21:31.047Z,9.95
2022-09-09T11:24:24.477Z,9.07
2022-09-09T11:27:22.009Z,9.77
2022-09-09T11:30:37.837Z,9.18
2022-09-09T11:33:58.710Z,10.15
2022-09-09T11:37:22.789Z,10.55
2022-09-09T11:40:29.537Z,9.80
2022-09-09T11:43:43.397Z,9.68
2022-09-09T11:46:41.068Z,9.43
2022-09-09T11:49:32.468Z,11.82
2022-09-09T11:52:27.711Z,10.95
2022-09-09T11:55:28.598Z,10.45
2022-09-09T11:58:14.212Z,11.45
2022-09-09T12:00:59.986Z,10.70
2022-09-09T12:03:55.739Z,10.68
2022-09-09T12:06:57.136Z,10.25
2022-09-09T12:09:53.661Z,10.90
2022-09-09T12:12:43.781Z,9.38
2022-09-09T12:15:30.300Z,10.75
2022-09-09T12:18:26.565Z,10.65
2022-09-09T12:21:50.603Z,10.63
2022-09-09T12:24:49.105Z,10.57
2022-09-09T12:27:42.010Z,10.70
2022-09-09T12:30:35.724Z,9.98
2022-09-09T12:33:22.854Z,10.95
2022-09-09T12:36:13.843Z,11.73
2022-09-09T12:39:16.011Z,10.27
2022-09-09T12:45:01.849Z,10.20
2022-09-09T12:48:09.498Z,10.27
2022-09-09T12:50:57.241Z,10.77
2022-09-09T12:53:43.019Z,10.38
2022-09-09T12:56:31.942Z,11.10
2022-09-09T12:59:26.284Z,10.98
2022-09-09T13:02:19.683Z,10.82
2022-09-09T13:05:18.101Z,11.07
2022-09-09T13:08:11.125Z,11.05
2022-09-09T13:11:08.359Z,10.63
2022-09-09T13:13:57.303Z,9.88
2022-09-09T13:16:43.333Z,11.02
2022-09-09T13:19:33.692Z,10.95
2022-09-09T13:22:39.004Z,11.07
2022-09-09T13:25:28.239Z,11.23
2022-09-09T13:28:23.782Z,11.05
2022-09-09T13:31:28.791Z,10.27
2022-09-09T13:34:31.216Z,10.95
2022-09-09T13:37:39.085Z,10.25
2022-09-09T13:40:25.465Z,10.60
2022-09-09T13:43:21.814Z,10.75
2022-09-09T13:46:27.955Z,11.27
2022-09-09T13:49:13.335Z,10.20
2022-09-09T13:52:17.823Z,11.35
2022-09-09T13:55:03.492Z,11.68
2022-09-09T13:57:53.055Z,11.50
2022-09-09T14:00:38.595Z,10.70
2022-09-09T14:03:24.346Z,11.45
2022-09-09T14:06:11.647Z,12.43
2022-09-09T14:08:57.405Z,11.10
2022-09-09T14:11:43.889Z,12.13
2022-09-09T14:14:29.606Z,11.27
2022-09-09T14:17:15.952Z,10.90
2022-09-09T14:20:01.607Z,11.70
2022-09-09T14:22:47.297Z,11.25
2022-09-09T14:25:34.500Z,11.38
2022-09-09T14:28:25.880Z,11.05
2022-09-09T14:31:25.452Z,12.10
2022-09-09T14:34:11.997Z,10.48
2022-09-09T14:36:58.059Z,11.55
2022-09-09T14:39:45.304Z,12.27
2022-09-09T14:42:31.352Z,11.75
2022-09-09T14:45:17.439Z,13.05
2022-09-09T14:48:05.022Z,12.65
2022-09-09T14:50:50.658Z,12.07
2022-09-09T14:53:36.026Z,11.90
2022-09-09T14:56:24.072Z,11.43
2022-09-09T14:59:09.558Z,12.35
2022-09-09T15:01:55.186Z,12.93
2022-09-09T15:04:40.664Z,12.25
2022-09-09T15:07:27.630Z,10.90
2022-09-09T15:10:13.612Z,12.25
2022-09-09T15:12:58.928Z,11.80
2022-09-09T15:15:44.998Z,12.73
2022-09-09T15:18:30.217Z,12.32
2022-09-09T15:21:17.900Z,11.55
2022-09-09T15:24:05.367Z,11.65
2022-09-09T15:26:51.208Z,12.10
2022-09-09T15:29:36.830Z,12.07
2022-09-09T15:32:22.531Z,12.27
2022-09-09T15:35:10.764Z,12.43
2022-09-09T15:38:06.039Z,12.52
2022-09-09T15:40:58.238Z,12.38
2022-09-09T15:43:47.334Z,12.15
2022-09-09T15:46:38.670Z,12.32
2022-09-09T15:49:26.904Z,11.05
2022-09-09T15:52:13.269Z,11.95
2022-09-09T15:54:59.443Z,11.90
2022-09-09T15:57:44.794Z,11.95
2022-09-09T16:00:30.738Z,11.50
2022-09-09T16:03:16.326Z,11.82
2022-09-09T16:06:02.470Z,13.23
2022-09-09T16:08:54.594Z,12.75
2022-09-09T16:11:40.415Z,11.55
2022-09-09T16:14:27.161Z,11.52
2022-09-09T16:17:13.224Z,11.55
2022-09-09T16:19:58.807Z,12.20
2022-09-09T16:22:44.541Z,13.05
2022-09-09T16:25:30.175Z,11.88
2022-09-09T16:28:16.320Z,12.20
2022-09-09T16:31:06.032Z,12.00
2022-09-09T16:33:52.931Z,12.35
2022-09-09T16:36:41.415Z,12.95
2022-09-09T16:39:27.559Z,12.93
2022-09-09T16:42:13.775Z,13.05
2022-09-09T16:44:59.066Z,13.07
2022-09-09T16:47:45.557Z,12.30
2022-09-09T16:50:32.009Z,11.95
2022-09-09T16:53:17.788Z,11.85
2022-09-09T16:56:11.556Z,12.95
2022-09-09T16:58:59.497Z,11.57
2022-09-09T17:01:47.181Z,11.18
2022-09-09T17:04:33.618Z,10.93
2022-09-09T17:07:20.354Z,11.65
2022-09-09T17:10:07.043Z,11.68
2022-09-09T17:12:53.050Z,10.63
2022-09-09T17:15:43.800Z,12.35
2022-09-09T17:18:29.833Z,11.70
2022-09-09T17:21:17.885Z,11.30
2022-09-09T17:24:04.060Z,11.68
2022-09-09T17:26:49.786Z,12.27
2022-09-09T17:29:36.941Z,11.93
2022-09-09T17:32:23.149Z,11.85
2022-09-09T17:35:09.462Z,11.52
2022-09-09T17:37:55.823Z,11.32
2022-09-09T17:40:41.400Z,11.15
2022-09-09T17:43:26.837Z,46.88
2022-09-09T17:46:16.176Z,16.35
2022-09-09T17:49:10.939Z,13.25
2022-09-09T17:51:57.174Z,13.35
2022-09-09T17:54:42.627Z,12.52
2022-09-09T17:57:28.840Z,11.82
2022-09-09T18:00:15.021Z,12.02
2022-09-09T18:03:03.350Z,12.65
2022-09-09T18:05:49.089Z,12.43
2022-09-09T18:08:37.026Z,13.00
2022-09-09T18:11:26.043Z,13.43
2022-09-09T18:14:15.604Z,13.43
2022-09-09T18:17:04.213Z,12.90
2022-09-09T18:19:50.107Z,12.15
2022-09-09T18:22:35.867Z,13.38
2022-09-09T18:25:21.626Z,14.35
2022-09-09T18:28:08.529Z,14.40
2022-09-09T18:30:54.252Z,14.32
2022-09-09T18:33:43.478Z,14.13
2022-09-09T18:36:32.501Z,15.18
2022-09-09T18:39:20.034Z,14.48
2022-09-09T18:42:06.795Z,15.85
2022-09-09T18:44:52.711Z,15.98
2022-09-09T18:47:38.645Z,15.32
2022-09-09T18:50:24.215Z,16.67
2022-09-09T18:53:11.041Z,16.90
2022-09-09T18:56:02.164Z,17.90
2022-09-09T18:58:52.258Z,16.17
2022-09-09T19:01:39.332Z,16.20
2022-09-09T19:04:27.671Z,17.02
2022-09-09T19:07:14.018Z,16.20
2022-09-09T19:09:59.648Z,15.95
2022-09-09T19:12:45.234Z,17.15
2022-09-09T19:15:33.187Z,17.05
2022-09-09T19:18:18.631Z,15.90
2022-09-09T19:21:18.285Z,17.08
2022-09-09T19:24:17.738Z,16.38
2022-09-09T19:27:06.800Z,16.88
2022-09-09T19:29:56.758Z,15.73
2022-09-09T19:32:53.133Z,16.58
2022-09-09T19:35:39.546Z,15.93
2022-09-09T19:38:26.399Z,15.80
2022-09-09T19:41:15.348Z,15.80
2022-09-09T19:44:06.037Z,15.98
2022-09-09T19:46:52.690Z,16.38
2022-09-09T19:49:38.552Z,15.55
2022-09-09T19:52:23.770Z,15.80
2022-09-09T19:55:10.016Z,15.23
2022-09-09T19:57:55.436Z,14.45
2022-09-09T20:00:40.830Z,15.75
2022-09-09T20:03:26.398Z,15.05
2022-09-09T20:06:14.086Z,14.43
2022-09-09T20:09:00.323Z,15.00
2022-09-09T20:11:47.388Z,14.80
2022-09-09T20:14:37.264Z,14.02
2022-09-09T20:17:25.082Z,13.07
2022-09-09T20:20:10.683Z,12.60
2022-09-09T20:22:57.473Z,12.15
2022-09-09T20:25:44.197Z,12.77
2022-09-09T20:28:30.180Z,12.45
2022-09-09T20:31:19.004Z,12.30
2022-09-09T20:34:06.149Z,11.80
2022-09-09T20:36:51.520Z,13.30
2022-09-09T20:39:37.364Z,11.55
2022-09-09T20:42:22.821Z,11.10
2022-09-09T20:45:12.227Z,11.68
2022-09-09T20:47:57.853Z,11.05
2022-09-09T20:50:43.131Z,11.82
2022-09-09T20:53:28.581Z,10.82
2022-09-09T20:56:17.050Z,10.82
2022-09-09T20:59:02.757Z,11.30
2022-09-09T21:01:48.723Z,10.50
2022-09-09T21:04:34.277Z,10.02
2022-09-09T21:07:19.575Z,10.10
2022-09-09T21:10:05.655Z,10.80
2022-09-09T21:12:50.962Z,10.93
2022-09-09T21:15:36.368Z,11.65
2022-09-09T21:18:23.063Z,10.95
2022-09-09T21:21:08.642Z,10.25
2022-09-09T21:24:00.658Z,10.23
2022-09-09T21:29:31.763Z,10.70
2022-09-09T21:32:17.908Z,10.05
2022-09-09T21:35:03.906Z,9.88
2022-09-09T21:37:49.621Z,9.55
2022-09-09T21:40:39.330Z,9.75
2022-09-09T21:43:24.655Z,10.48
2022-09-09T21:46:12.447Z,10.35
2022-09-09T21:48:58.712Z,9.80
2022-09-09T21:51:43.991Z,10.43
2022-09-09T21:54:31.679Z,10.40
2022-09-09T21:57:19.763Z,10.10
2022-09-09T22:00:12.588Z,10.30
2022-09-09T22:03:02.726Z,9.48
2022-09-09T22:05:53.274Z,9.50
2022-09-09T22:08:39.314Z,9.48
2022-09-09T22:11:25.323Z,9.35
2022-09-09T22:14:10.728Z,9.63
2022-09-09T22:16:56.455Z,10.82
2022-09-09T22:19:41.876Z,9.93
2022-09-09T22:22:27.633Z,9.75
2022-09-09T22:25:13.219Z,9.50
2022-09-09T22:27:58.697Z,9.52
2022-09-09T22:30:43.916Z,9.77
2022-09-09T22:33:29.606Z,9.75
2022-09-09T22:36:15.285Z,8.55
2022-09-09T22:39:01.200Z,9.05
2022-09-09T22:41:48.074Z,10.40
2022-09-09T22:44:34.615Z,9.18
2022-09-09T22:47:20.206Z,9.32
2022-09-09T22:50:06.153Z,9.82
2022-09-09T22:52:52.606Z,9.35
2022-09-09T22:55:37.985Z,9.52
2022-09-09T22:58:23.272Z,9.93
2022-09-09T23:01:17.810Z,9.05
2022-09-09T23:04:03.387Z,8.93
2022-09-09T23:06:48.730Z,9.50
2022-09-09T23:09:34.334Z,10.65
2022-09-09T23:12:20.608Z,9.50
2022-09-09T23:15:10.564Z,9.05
2022-09-09T23:17:56.029Z,8.93
2022-09-09T23:20:43.059Z,8.75
2022-09-09T23:23:28.955Z,9.57
2022-09-09T23:26:20.231Z,8.82
2022-09-09T23:29:05.641Z,10.10
2022-09-09T23:31:51.000Z,9.50
2022-09-09T23:34:36.406Z,8.90
2022-09-09T23:37:21.621Z,9.32
2022-09-09T23:40:07.829Z,9.90
2022-09-09T23:42:55.262Z,9.30
2022-09-09T23:45:41.168Z,8.60
2022-09-09T23:48:30.038Z,8.48
2022-09-09T23:51:17.372Z,9.25
2022-09-09T23:54:05.286Z,9.38
2022-09-09T23:56:50.756Z,10.00
2022-09-09T23:59:36.037Z,9.35
